Terminal Aerodrome Forecast
Issued by NWS

Home | Current Version | Previous Version | Text Only | Print | Product List | Glossary On
Versions: 1 2 3 4 5 6 7 8 9 10 11 12 13 14 15 16 17 18 19 20 21 22 23 24
000
FTAK31 PAFA 152338
TAFAFA
TAF
PAFA 152338Z 1600/1706 06004KT P6SM SCT100 BKN200
     FM160300 VRB03KT P6SM VCSH SCT050 BKN100
     FM160800 06003KT P6SM SCT080 BKN120
     FM161800 VRB02KT P6SM BKN120=

USA.gov is the U.S. government's official web portal to all federal, state and local government web resources and services.